sensor_id;sensor_type;location;lat;lon;timestamp;P1;durP1;ratioP1;P2;durP2;ratioP2
65853;SDS011;52627;48.838;2.402;2024-01-10T00:00:46;29.80;;;16.80;;
65853;SDS011;52627;48.838;2.402;2024-01-10T00:03:13;28.20;;;16.40;;
65853;SDS011;52627;48.838;2.402;2024-01-10T00:05:40;28.70;;;15.80;;
65853;SDS011;52627;48.838;2.402;2024-01-10T00:08:06;29.20;;;16.40;;
65853;SDS011;52627;48.838;2.402;2024-01-10T00:10:33;29.00;;;16.40;;
65853;SDS011;52627;48.838;2.402;2024-01-10T00:13:00;31.20;;;16.70;;
65853;SDS011;52627;48.838;2.402;2024-01-10T00:15:27;27.70;;;15.90;;
65853;SDS011;52627;48.838;2.402;2024-01-10T00:17:54;28.30;;;16.10;;
65853;SDS011;52627;48.838;2.402;2024-01-10T00:20:20;27.20;;;15.60;;
65853;SDS011;52627;48.838;2.402;2024-01-10T00:22:47;31.20;;;17.50;;
65853;SDS011;52627;48.838;2.402;2024-01-10T00:25:15;28.00;;;15.30;;
65853;SDS011;52627;48.838;2.402;2024-01-10T00:27:41;27.80;;;15.70;;
65853;SDS011;52627;48.838;2.402;2024-01-10T00:30:08;28.90;;;16.20;;
65853;SDS011;52627;48.838;2.402;2024-01-10T00:32:35;27.90;;;15.80;;
65853;SDS011;52627;48.838;2.402;2024-01-10T00:35:02;30.60;;;17.70;;
65853;SDS011;52627;48.838;2.402;2024-01-10T00:37:30;30.30;;;16.40;;
65853;SDS011;52627;48.838;2.402;2024-01-10T00:39:56;30.10;;;16.70;;
65853;SDS011;52627;48.838;2.402;2024-01-10T00:42:23;28.90;;;15.40;;
65853;SDS011;52627;48.838;2.402;2024-01-10T00:44:50;26.60;;;16.00;;
65853;SDS011;52627;48.838;2.402;2024-01-10T00:47:17;27.60;;;16.20;;
65853;SDS011;52627;48.838;2.402;2024-01-10T00:49:44;29.90;;;17.00;;
65853;SDS011;52627;48.838;2.402;2024-01-10T00:52:10;28.30;;;15.70;;
65853;SDS011;52627;48.838;2.402;2024-01-10T00:54:37;29.00;;;16.10;;
65853;SDS011;52627;48.838;2.402;2024-01-10T00:57:04;30.30;;;16.00;;
65853;SDS011;52627;48.838;2.402;2024-01-10T00:59:31;27.80;;;16.50;;
65853;SDS011;52627;48.838;2.402;2024-01-10T01:01:57;30.10;;;17.30;;
65853;SDS011;52627;48.838;2.402;2024-01-10T01:04:24;29.60;;;17.40;;
65853;SDS011;52627;48.838;2.402;2024-01-10T01:06:51;30.70;;;15.70;;
65853;SDS011;52627;48.838;2.402;2024-01-10T01:09:18;28.10;;;16.70;;
65853;SDS011;52627;48.838;2.402;2024-01-10T01:11:45;30.80;;;17.40;;
65853;SDS011;52627;48.838;2.402;2024-01-10T01:14:12;32.00;;;17.30;;
65853;SDS011;52627;48.838;2.402;2024-01-10T01:16:39;28.50;;;16.90;;
65853;SDS011;52627;48.838;2.402;2024-01-10T01:19:05;31.50;;;17.20;;
65853;SDS011;52627;48.838;2.402;2024-01-10T01:21:32;30.40;;;17.20;;
65853;SDS011;52627;48.838;2.402;2024-01-10T01:23:59;32.30;;;17.10;;
65853;SDS011;52627;48.838;2.402;2024-01-10T01:26:26;29.90;;;17.00;;
65853;SDS011;52627;48.838;2.402;2024-01-10T01:28:53;27.10;;;16.30;;
65853;SDS011;52627;48.838;2.402;2024-01-10T01:31:20;29.80;;;16.20;;
65853;SDS011;52627;48.838;2.402;2024-01-10T01:33:46;28.00;;;15.90;;
65853;SDS011;52627;48.838;2.402;2024-01-10T01:36:13;28.20;;;16.30;;
65853;SDS011;52627;48.838;2.402;2024-01-10T01:38:40;28.40;;;16.20;;
65853;SDS011;52627;48.838;2.402;2024-01-10T01:41:07;28.10;;;16.40;;
65853;SDS011;52627;48.838;2.402;2024-01-10T01:43:34;30.60;;;16.90;;
65853;SDS011;52627;48.838;2.402;2024-01-10T01:46:02;30.40;;;15.90;;
65853;SDS011;52627;48.838;2.402;2024-01-10T01:48:30;29.70;;;16.90;;
65853;SDS011;52627;48.838;2.402;2024-01-10T01:51:01;34.00;;;18.00;;
65853;SDS011;52627;48.838;2.402;2024-01-10T01:53:30;28.90;;;16.70;;
65853;SDS011;52627;48.838;2.402;2024-01-10T01:55:57;28.50;;;15.60;;
65853;SDS011;52627;48.838;2.402;2024-01-10T01:58:27;29.90;;;16.80;;
65853;SDS011;52627;48.838;2.402;2024-01-10T02:00:55;27.60;;;16.20;;
65853;SDS011;52627;48.838;2.402;2024-01-10T02:03:22;27.00;;;16.20;;
65853;SDS011;52627;48.838;2.402;2024-01-10T02:05:49;30.00;;;17.40;;
65853;SDS011;52627;48.838;2.402;2024-01-10T02:08:16;27.90;;;15.80;;
65853;SDS011;52627;48.838;2.402;2024-01-10T02:10:43;27.80;;;16.30;;
65853;SDS011;52627;48.838;2.402;2024-01-10T02:13:10;31.70;;;17.10;;
65853;SDS011;52627;48.838;2.402;2024-01-10T02:15:38;28.20;;;15.80;;
65853;SDS011;52627;48.838;2.402;2024-01-10T02:18:05;28.80;;;16.40;;
65853;SDS011;52627;48.838;2.402;2024-01-10T02:20:33;29.20;;;16.50;;
65853;SDS011;52627;48.838;2.402;2024-01-10T02:23:00;29.80;;;16.50;;
65853;SDS011;52627;48.838;2.402;2024-01-10T02:25:27;29.80;;;15.90;;
65853;SDS011;52627;48.838;2.402;2024-01-10T02:27:54;29.40;;;16.20;;
65853;SDS011;52627;48.838;2.402;2024-01-10T02:30:20;26.20;;;16.10;;
65853;SDS011;52627;48.838;2.402;2024-01-10T02:32:47;29.10;;;15.90;;
65853;SDS011;52627;48.838;2.402;2024-01-10T02:35:14;27.10;;;16.00;;
65853;SDS011;52627;48.838;2.402;2024-01-10T02:37:41;26.50;;;15.50;;
65853;SDS011;52627;48.838;2.402;2024-01-10T02:40:08;30.60;;;17.20;;
65853;SDS011;52627;48.838;2.402;2024-01-10T02:42:35;28.80;;;16.60;;
65853;SDS011;52627;48.838;2.402;2024-01-10T02:45:03;28.10;;;16.00;;
65853;SDS011;52627;48.838;2.402;2024-01-10T02:47:31;29.10;;;16.50;;
65853;SDS011;52627;48.838;2.402;2024-01-10T02:49:58;27.50;;;15.70;;
65853;SDS011;52627;48.838;2.402;2024-01-10T02:52:24;27.20;;;17.10;;
65853;SDS011;52627;48.838;2.402;2024-01-10T02:54:51;29.50;;;15.60;;
65853;SDS011;52627;48.838;2.402;2024-01-10T02:57:18;28.60;;;17.50;;
65853;SDS011;52627;48.838;2.402;2024-01-10T02:59:45;27.90;;;16.70;;
65853;SDS011;52627;48.838;2.402;2024-01-10T03:02:12;30.70;;;16.00;;
65853;SDS011;52627;48.838;2.402;2024-01-10T03:04:38;26.20;;;15.60;;
65853;SDS011;52627;48.838;2.402;2024-01-10T03:07:07;30.40;;;15.70;;
65853;SDS011;52627;48.838;2.402;2024-01-10T03:09:34;29.50;;;16.30;;
65853;SDS011;52627;48.838;2.402;2024-01-10T03:12:01;28.90;;;16.00;;
65853;SDS011;52627;48.838;2.402;2024-01-10T03:14:27;32.10;;;16.50;;
65853;SDS011;52627;48.838;2.402;2024-01-10T03:16:54;27.30;;;16.00;;
65853;SDS011;52627;48.838;2.402;2024-01-10T03:19:21;28.20;;;16.50;;
65853;SDS011;52627;48.838;2.402;2024-01-10T03:21:48;28.00;;;16.80;;
65853;SDS011;52627;48.838;2.402;2024-01-10T03:24:15;29.30;;;16.10;;
65853;SDS011;52627;48.838;2.402;2024-01-10T03:26:42;29.10;;;16.40;;
65853;SDS011;52627;48.838;2.402;2024-01-10T03:29:09;28.40;;;15.60;;
65853;SDS011;52627;48.838;2.402;2024-01-10T03:31:36;31.40;;;17.50;;
65853;SDS011;52627;48.838;2.402;2024-01-10T03:34:04;30.30;;;16.00;;
65853;SDS011;52627;48.838;2.402;2024-01-10T03:36:30;26.20;;;15.00;;
65853;SDS011;52627;48.838;2.402;2024-01-10T03:38:57;26.90;;;15.70;;
65853;SDS011;52627;48.838;2.402;2024-01-10T03:41:24;28.80;;;16.40;;
65853;SDS011;52627;48.838;2.402;2024-01-10T03:43:51;27.40;;;16.10;;
65853;SDS011;52627;48.838;2.402;2024-01-10T03:46:18;25.50;;;15.80;;
65853;SDS011;52627;48.838;2.402;2024-01-10T03:48:45;28.90;;;16.00;;
65853;SDS011;52627;48.838;2.402;2024-01-10T03:51:16;29.50;;;15.60;;
65853;SDS011;52627;48.838;2.402;2024-01-10T03:53:46;28.00;;;16.00;;
65853;SDS011;52627;48.838;2.402;2024-01-10T03:56:16;28.60;;;16.50;;
65853;SDS011;52627;48.838;2.402;2024-01-10T03:58:43;28.00;;;16.20;;
65853;SDS011;52627;48.838;2.402;2024-01-10T04:01:09;28.70;;;16.10;;
65853;SDS011;52627;48.838;2.402;2024-01-10T04:03:36;26.60;;;15.90;;
65853;SDS011;52627;48.838;2.402;2024-01-10T04:06:03;26.90;;;16.00;;
65853;SDS011;52627;48.838;2.402;2024-01-10T04:08:31;27.60;;;15.50;;
65853;SDS011;52627;48.838;2.402;2024-01-10T04:10:58;28.20;;;15.10;;
65853;SDS011;52627;48.838;2.402;2024-01-10T04:13:25;27.20;;;15.20;;
65853;SDS011;52627;48.838;2.402;2024-01-10T04:15:52;25.80;;;14.80;;
65853;SDS011;52627;48.838;2.402;2024-01-10T04:18:19;27.10;;;15.30;;
65853;SDS011;52627;48.838;2.402;2024-01-10T04:20:47;28.70;;;15.70;;
65853;SDS011;52627;48.838;2.402;2024-01-10T04:23:14;27.00;;;14.50;;
65853;SDS011;52627;48.838;2.402;2024-01-10T04:25:41;28.60;;;14.80;;
65853;SDS011;52627;48.838;2.402;2024-01-10T04:28:08;24.70;;;14.30;;
65853;SDS011;52627;48.838;2.402;2024-01-10T04:30:35;26.80;;;14.70;;
65853;SDS011;52627;48.838;2.402;2024-01-10T04:33:02;26.70;;;15.20;;
65853;SDS011;52627;48.838;2.402;2024-01-10T04:35:29;27.00;;;15.30;;
65853;SDS011;52627;48.838;2.402;2024-01-10T04:37:56;29.00;;;15.70;;
65853;SDS011;52627;48.838;2.402;2024-01-10T04:40:22;29.20;;;15.80;;
65853;SDS011;52627;48.838;2.402;2024-01-10T04:42:49;25.40;;;14.60;;
65853;SDS011;52627;48.838;2.402;2024-01-10T04:45:17;27.30;;;15.60;;
65853;SDS011;52627;48.838;2.402;2024-01-10T04:47:44;31.00;;;15.30;;
65853;SDS011;52627;48.838;2.402;2024-01-10T04:50:11;27.80;;;15.80;;
65853;SDS011;52627;48.838;2.402;2024-01-10T04:52:41;26.60;;;14.80;;
65853;SDS011;52627;48.838;2.402;2024-01-10T04:55:07;27.30;;;15.70;;
65853;SDS011;52627;48.838;2.402;2024-01-10T04:57:34;27.70;;;16.10;;
65853;SDS011;52627;48.838;2.402;2024-01-10T05:00:02;26.70;;;14.90;;
65853;SDS011;52627;48.838;2.402;2024-01-10T05:02:31;26.00;;;15.00;;
65853;SDS011;52627;48.838;2.402;2024-01-10T05:04:58;28.10;;;15.50;;
65853;SDS011;52627;48.838;2.402;2024-01-10T05:07:25;26.70;;;15.50;;
65853;SDS011;52627;48.838;2.402;2024-01-10T05:09:52;28.20;;;15.70;;
65853;SDS011;52627;48.838;2.402;2024-01-10T05:12:19;28.90;;;14.70;;
65853;SDS011;52627;48.838;2.402;2024-01-10T05:14:46;26.60;;;15.10;;
65853;SDS011;52627;48.838;2.402;2024-01-10T05:17:12;29.10;;;15.50;;
65853;SDS011;52627;48.838;2.402;2024-01-10T05:19:39;26.30;;;14.60;;
65853;SDS011;52627;48.838;2.402;2024-01-10T05:22:06;24.70;;;15.00;;
65853;SDS011;52627;48.838;2.402;2024-01-10T05:24:33;28.90;;;16.30;;
65853;SDS011;52627;48.838;2.402;2024-01-10T05:27:00;29.30;;;15.20;;
65853;SDS011;52627;48.838;2.402;2024-01-10T05:29:27;29.30;;;16.30;;
65853;SDS011;52627;48.838;2.402;2024-01-10T05:31:54;25.90;;;14.80;;
65853;SDS011;52627;48.838;2.402;2024-01-10T05:34:21;27.70;;;16.20;;
65853;SDS011;52627;48.838;2.402;2024-01-10T05:36:48;27.70;;;14.60;;
65853;SDS011;52627;48.838;2.402;2024-01-10T05:39:16;27.50;;;15.20;;
65853;SDS011;52627;48.838;2.402;2024-01-10T05:41:43;28.80;;;16.40;;
65853;SDS011;52627;48.838;2.402;2024-01-10T05:44:13;27.20;;;15.80;;
65853;SDS011;52627;48.838;2.402;2024-01-10T05:46:40;28.60;;;16.00;;
65853;SDS011;52627;48.838;2.402;2024-01-10T05:49:09;26.20;;;14.70;;
65853;SDS011;52627;48.838;2.402;2024-01-10T05:51:37;26.30;;;14.60;;
65853;SDS011;52627;48.838;2.402;2024-01-10T05:54:04;29.30;;;15.40;;
65853;SDS011;52627;48.838;2.402;2024-01-10T05:56:31;25.00;;;14.80;;
65853;SDS011;52627;48.838;2.402;2024-01-10T05:58:58;25.70;;;14.80;;
65853;SDS011;52627;48.838;2.402;2024-01-10T06:01:25;26.30;;;15.10;;
65853;SDS011;52627;48.838;2.402;2024-01-10T06:03:52;28.40;;;15.80;;
65853;SDS011;52627;48.838;2.402;2024-01-10T06:06:18;27.20;;;16.10;;
65853;SDS011;52627;48.838;2.402;2024-01-10T06:08:45;25.50;;;15.20;;
65853;SDS011;52627;48.838;2.402;2024-01-10T06:11:12;29.60;;;16.10;;
65853;SDS011;52627;48.838;2.402;2024-01-10T06:13:39;27.50;;;15.90;;
65853;SDS011;52627;48.838;2.402;2024-01-10T06:16:20;28.60;;;15.70;;
65853;SDS011;52627;48.838;2.402;2024-01-10T06:18:47;29.80;;;15.10;;
65853;SDS011;52627;48.838;2.402;2024-01-10T06:21:15;28.30;;;15.30;;
65853;SDS011;52627;48.838;2.402;2024-01-10T06:23:42;28.60;;;16.10;;
65853;SDS011;52627;48.838;2.402;2024-01-10T06:26:09;25.70;;;14.30;;
65853;SDS011;52627;48.838;2.402;2024-01-10T06:28:36;25.60;;;13.90;;
65853;SDS011;52627;48.838;2.402;2024-01-10T06:31:03;27.10;;;13.80;;
65853;SDS011;52627;48.838;2.402;2024-01-10T06:33:30;28.80;;;15.10;;
65853;SDS011;52627;48.838;2.402;2024-01-10T06:35:57;25.80;;;13.80;;
65853;SDS011;52627;48.838;2.402;2024-01-10T06:38:25;23.80;;;13.70;;
65853;SDS011;52627;48.838;2.402;2024-01-10T06:40:53;25.80;;;14.00;;
65853;SDS011;52627;48.838;2.402;2024-01-10T06:43:20;21.20;;;12.50;;
65853;SDS011;52627;48.838;2.402;2024-01-10T06:45:46;22.90;;;12.90;;
65853;SDS011;52627;48.838;2.402;2024-01-10T06:48:14;25.30;;;13.50;;
65853;SDS011;52627;48.838;2.402;2024-01-10T06:50:41;23.20;;;13.10;;
65853;SDS011;52627;48.838;2.402;2024-01-10T06:53:08;23.00;;;13.10;;
65853;SDS011;52627;48.838;2.402;2024-01-10T06:55:35;24.20;;;14.20;;
65853;SDS011;52627;48.838;2.402;2024-01-10T06:58:02;24.30;;;13.40;;
65853;SDS011;52627;48.838;2.402;2024-01-10T07:00:29;24.20;;;12.70;;
65853;SDS011;52627;48.838;2.402;2024-01-10T07:02:57;23.10;;;12.70;;
65853;SDS011;52627;48.838;2.402;2024-01-10T07:05:23;23.00;;;13.10;;
65853;SDS011;52627;48.838;2.402;2024-01-10T07:07:51;24.90;;;13.00;;
65853;SDS011;52627;48.838;2.402;2024-01-10T07:10:18;21.50;;;12.70;;
65853;SDS011;52627;48.838;2.402;2024-01-10T07:12:45;22.50;;;12.70;;
65853;SDS011;52627;48.838;2.402;2024-01-10T07:15:11;23.50;;;12.90;;
65853;SDS011;52627;48.838;2.402;2024-01-10T07:17:39;22.10;;;11.90;;
65853;SDS011;52627;48.838;2.402;2024-01-10T07:20:06;21.80;;;11.50;;
65853;SDS011;52627;48.838;2.402;2024-01-10T07:22:35;22.50;;;12.50;;
65853;SDS011;52627;48.838;2.402;2024-01-10T07:25:02;21.60;;;12.40;;
65853;SDS011;52627;48.838;2.402;2024-01-10T07:27:29;22.30;;;12.60;;
65853;SDS011;52627;48.838;2.402;2024-01-10T07:29:56;22.20;;;12.20;;
65853;SDS011;52627;48.838;2.402;2024-01-10T07:32:24;21.60;;;12.30;;
65853;SDS011;52627;48.838;2.402;2024-01-10T07:34:51;19.30;;;11.30;;
65853;SDS011;52627;48.838;2.402;2024-01-10T07:37:18;22.40;;;12.30;;
65853;SDS011;52627;48.838;2.402;2024-01-10T07:39:47;22.00;;;12.20;;
65853;SDS011;52627;48.838;2.402;2024-01-10T07:42:14;22.90;;;11.50;;
65853;SDS011;52627;48.838;2.402;2024-01-10T07:44:40;22.60;;;12.60;;
65853;SDS011;52627;48.838;2.402;2024-01-10T07:47:10;21.00;;;11.70;;
65853;SDS011;52627;48.838;2.402;2024-01-10T07:49:37;22.70;;;12.30;;
65853;SDS011;52627;48.838;2.402;2024-01-10T07:52:04;21.30;;;12.40;;
65853;SDS011;52627;48.838;2.402;2024-01-10T07:54:31;22.40;;;11.30;;
65853;SDS011;52627;48.838;2.402;2024-01-10T07:56:58;18.90;;;10.90;;
65853;SDS011;52627;48.838;2.402;2024-01-10T07:59:25;21.00;;;11.70;;
65853;SDS011;52627;48.838;2.402;2024-01-10T08:01:56;18.00;;;11.20;;
65853;SDS011;52627;48.838;2.402;2024-01-10T08:04:25;22.00;;;12.40;;
65853;SDS011;52627;48.838;2.402;2024-01-10T08:06:53;23.60;;;11.90;;
65853;SDS011;52627;48.838;2.402;2024-01-10T08:09:21;20.20;;;11.10;;
65853;SDS011;52627;48.838;2.402;2024-01-10T08:11:48;21.60;;;11.90;;
65853;SDS011;52627;48.838;2.402;2024-01-10T08:14:15;20.20;;;11.20;;
65853;SDS011;52627;48.838;2.402;2024-01-10T08:16:43;22.30;;;12.00;;
65853;SDS011;52627;48.838;2.402;2024-01-10T08:19:14;20.10;;;11.40;;
65853;SDS011;52627;48.838;2.402;2024-01-10T08:21:41;19.40;;;11.40;;
65853;SDS011;52627;48.838;2.402;2024-01-10T08:24:08;21.70;;;12.30;;
65853;SDS011;52627;48.838;2.402;2024-01-10T08:26:34;21.70;;;11.40;;
65853;SDS011;52627;48.838;2.402;2024-01-10T08:29:01;22.90;;;12.20;;
65853;SDS011;52627;48.838;2.402;2024-01-10T08:31:28;18.80;;;11.90;;
65853;SDS011;52627;48.838;2.402;2024-01-10T08:33:55;21.20;;;12.20;;
65853;SDS011;52627;48.838;2.402;2024-01-10T08:36:23;21.60;;;12.20;;
65853;SDS011;52627;48.838;2.402;2024-01-10T08:38:50;21.90;;;12.50;;
65853;SDS011;52627;48.838;2.402;2024-01-10T08:41:18;23.00;;;12.60;;
65853;SDS011;52627;48.838;2.402;2024-01-10T08:43:49;23.30;;;12.80;;
65853;SDS011;52627;48.838;2.402;2024-01-10T08:46:16;19.80;;;11.70;;
65853;SDS011;52627;48.838;2.402;2024-01-10T08:48:43;21.50;;;12.20;;
65853;SDS011;52627;48.838;2.402;2024-01-10T08:51:10;21.90;;;12.20;;
65853;SDS011;52627;48.838;2.402;2024-01-10T08:53:37;22.00;;;11.40;;
65853;SDS011;52627;48.838;2.402;2024-01-10T08:56:04;21.10;;;11.70;;
65853;SDS011;52627;48.838;2.402;2024-01-10T08:58:32;20.10;;;11.90;;
65853;SDS011;52627;48.838;2.402;2024-01-10T09:00:58;22.70;;;12.00;;
65853;SDS011;52627;48.838;2.402;2024-01-10T09:03:25;25.40;;;13.10;;
65853;SDS011;52627;48.838;2.402;2024-01-10T09:05:53;20.80;;;11.90;;
65853;SDS011;52627;48.838;2.402;2024-01-10T09:08:34;21.70;;;13.30;;
65853;SDS011;52627;48.838;2.402;2024-01-10T09:11:01;21.20;;;13.00;;
65853;SDS011;52627;48.838;2.402;2024-01-10T09:13:28;24.10;;;14.40;;
65853;SDS011;52627;48.838;2.402;2024-01-10T09:15:55;24.20;;;12.50;;
65853;SDS011;52627;48.838;2.402;2024-01-10T09:18:23;23.90;;;13.60;;
65853;SDS011;52627;48.838;2.402;2024-01-10T09:20:50;22.40;;;13.00;;
65853;SDS011;52627;48.838;2.402;2024-01-10T09:23:17;25.50;;;13.60;;
65853;SDS011;52627;48.838;2.402;2024-01-10T09:25:45;22.60;;;12.20;;
65853;SDS011;52627;48.838;2.402;2024-01-10T09:28:12;21.80;;;12.80;;
65853;SDS011;52627;48.838;2.402;2024-01-10T09:30:40;21.30;;;12.50;;
65853;SDS011;52627;48.838;2.402;2024-01-10T09:33:09;20.70;;;12.40;;
65853;SDS011;52627;48.838;2.402;2024-01-10T09:35:36;21.50;;;12.40;;
65853;SDS011;52627;48.838;2.402;2024-01-10T09:38:03;21.20;;;12.40;;
65853;SDS011;52627;48.838;2.402;2024-01-10T09:40:30;19.50;;;11.90;;
65853;SDS011;52627;48.838;2.402;2024-01-10T09:42:58;21.50;;;12.80;;
65853;SDS011;52627;48.838;2.402;2024-01-10T09:45:26;21.70;;;12.50;;
65853;SDS011;52627;48.838;2.402;2024-01-10T09:47:56;22.10;;;12.00;;
65853;SDS011;52627;48.838;2.402;2024-01-10T09:50:26;19.90;;;10.90;;
65853;SDS011;52627;48.838;2.402;2024-01-10T09:53:02;18.90;;;11.30;;
65853;SDS011;52627;48.838;2.402;2024-01-10T09:55:35;22.80;;;11.80;;
65853;SDS011;52627;48.838;2.402;2024-01-10T09:58:07;18.70;;;10.70;;
65853;SDS011;52627;48.838;2.402;2024-01-10T10:00:36;20.20;;;11.90;;
65853;SDS011;52627;48.838;2.402;2024-01-10T10:03:09;19.50;;;11.30;;
65853;SDS011;52627;48.838;2.402;2024-01-10T10:05:40;17.70;;;10.50;;
65853;SDS011;52627;48.838;2.402;2024-01-10T10:08:11;18.80;;;10.30;;
65853;SDS011;52627;48.838;2.402;2024-01-10T10:10:42;19.90;;;10.90;;
65853;SDS011;52627;48.838;2.402;2024-01-10T10:13:26;19.60;;;11.00;;
65853;SDS011;52627;48.838;2.402;2024-01-10T10:16:10;18.70;;;10.40;;
65853;SDS011;52627;48.838;2.402;2024-01-10T10:18:39;17.30;;;10.80;;
65853;SDS011;52627;48.838;2.402;2024-01-10T10:21:14;18.70;;;10.70;;
65853;SDS011;52627;48.838;2.402;2024-01-10T10:23:43;20.10;;;10.50;;
65853;SDS011;52627;48.838;2.402;2024-01-10T10:26:45;20.50;;;10.80;;
65853;SDS011;52627;48.838;2.402;2024-01-10T10:29:17;20.60;;;10.90;;
65853;SDS011;52627;48.838;2.402;2024-01-10T10:31:48;19.60;;;10.40;;
65853;SDS011;52627;48.838;2.402;2024-01-10T10:34:20;18.20;;;10.10;;
65853;SDS011;52627;48.838;2.402;2024-01-10T10:36:54;19.50;;;10.80;;
65853;SDS011;52627;48.838;2.402;2024-01-10T10:39:25;17.30;;;9.60;;
65853;SDS011;52627;48.838;2.402;2024-01-10T10:42:17;19.30;;;11.10;;
65853;SDS011;52627;48.838;2.402;2024-01-10T10:44:48;17.20;;;9.90;;
65853;SDS011;52627;48.838;2.402;2024-01-10T10:47:25;19.80;;;10.10;;
65853;SDS011;52627;48.838;2.402;2024-01-10T10:50:12;19.70;;;10.70;;
65853;SDS011;52627;48.838;2.402;2024-01-10T10:52:45;18.70;;;10.60;;
65853;SDS011;52627;48.838;2.402;2024-01-10T10:55:40;19.60;;;10.60;;
65853;SDS011;52627;48.838;2.402;2024-01-10T10:58:22;19.80;;;10.80;;
65853;SDS011;52627;48.838;2.402;2024-01-10T11:01:05;24.20;;;11.40;;
65853;SDS011;52627;48.838;2.402;2024-01-10T11:03:37;18.60;;;10.50;;
65853;SDS011;52627;48.838;2.402;2024-01-10T11:06:06;18.40;;;11.00;;
65853;SDS011;52627;48.838;2.402;2024-01-10T11:08:45;26.60;;;12.60;;
65853;SDS011;52627;48.838;2.402;2024-01-10T11:18:15;22.30;;;11.20;;
65853;SDS011;52627;48.838;2.402;2024-01-10T11:23:49;18.90;;;10.60;;
65853;SDS011;52627;48.838;2.402;2024-01-10T11:26:19;21.50;;;11.20;;
65853;SDS011;52627;48.838;2.402;2024-01-10T11:28:47;20.80;;;11.10;;
65853;SDS011;52627;48.838;2.402;2024-01-10T11:31:14;19.80;;;10.90;;
65853;SDS011;52627;48.838;2.402;2024-01-10T11:33:44;22.20;;;13.40;;
65853;SDS011;52627;48.838;2.402;2024-01-10T11:36:15;20.60;;;11.60;;
65853;SDS011;52627;48.838;2.402;2024-01-10T11:39:03;19.90;;;11.50;;
65853;SDS011;52627;48.838;2.402;2024-01-10T11:41:36;23.30;;;11.50;;
65853;SDS011;52627;48.838;2.402;2024-01-10T11:46:43;19.20;;;11.50;;
65853;SDS011;52627;48.838;2.402;2024-01-10T11:49:17;18.20;;;10.60;;
65853;SDS011;52627;48.838;2.402;2024-01-10T11:51:48;19.10;;;11.00;;
65853;SDS011;52627;48.838;2.402;2024-01-10T11:54:35;18.90;;;10.90;;
65853;SDS011;52627;48.838;2.402;2024-01-10T11:57:26;22.00;;;11.50;;
65853;SDS011;52627;48.838;2.402;2024-01-10T11:59:56;20.90;;;11.30;;
65853;SDS011;52627;48.838;2.402;2024-01-10T12:02:26;18.40;;;11.50;;
65853;SDS011;52627;48.838;2.402;2024-01-10T12:04:54;19.70;;;11.70;;
65853;SDS011;52627;48.838;2.402;2024-01-10T12:07:22;17.80;;;11.20;;
65853;SDS011;52627;48.838;2.402;2024-01-10T12:09:51;18.00;;;11.50;;
65853;SDS011;52627;48.838;2.402;2024-01-10T12:12:18;16.40;;;10.10;;
65853;SDS011;52627;48.838;2.402;2024-01-10T12:14:45;21.60;;;11.60;;
65853;SDS011;52627;48.838;2.402;2024-01-10T12:17:12;21.70;;;12.20;;
65853;SDS011;52627;48.838;2.402;2024-01-10T12:19:39;20.00;;;12.20;;
65853;SDS011;52627;48.838;2.402;2024-01-10T12:22:07;20.00;;;12.00;;
65853;SDS011;52627;48.838;2.402;2024-01-10T12:24:43;19.90;;;11.30;;
65853;SDS011;52627;48.838;2.402;2024-01-10T12:27:11;22.70;;;12.10;;
65853;SDS011;52627;48.838;2.402;2024-01-10T12:29:38;18.20;;;11.10;;
65853;SDS011;52627;48.838;2.402;2024-01-10T12:32:07;18.20;;;11.70;;
65853;SDS011;52627;48.838;2.402;2024-01-10T12:34:39;19.20;;;11.20;;
65853;SDS011;52627;48.838;2.402;2024-01-10T12:37:06;20.40;;;11.10;;
65853;SDS011;52627;48.838;2.402;2024-01-10T12:39:33;20.00;;;12.40;;
65853;SDS011;52627;48.838;2.402;2024-01-10T12:42:00;22.30;;;11.40;;
65853;SDS011;52627;48.838;2.402;2024-01-10T12:44:31;23.20;;;12.40;;
65853;SDS011;52627;48.838;2.402;2024-01-10T12:46:58;19.70;;;11.30;;
65853;SDS011;52627;48.838;2.402;2024-01-10T12:49:26;22.80;;;12.30;;
65853;SDS011;52627;48.838;2.402;2024-01-10T12:51:53;18.60;;;11.00;;
65853;SDS011;52627;48.838;2.402;2024-01-10T12:54:20;22.20;;;12.00;;
65853;SDS011;52627;48.838;2.402;2024-01-10T12:56:49;21.60;;;12.80;;
65853;SDS011;52627;48.838;2.402;2024-01-10T12:59:16;20.30;;;12.30;;
65853;SDS011;52627;48.838;2.402;2024-01-10T13:01:43;22.70;;;13.20;;
65853;SDS011;52627;48.838;2.402;2024-01-10T13:04:10;21.40;;;12.20;;
65853;SDS011;52627;48.838;2.402;2024-01-10T13:06:38;21.50;;;13.00;;
65853;SDS011;52627;48.838;2.402;2024-01-10T13:09:07;23.20;;;13.60;;
65853;SDS011;52627;48.838;2.402;2024-01-10T13:11:34;23.80;;;12.20;;
65853;SDS011;52627;48.838;2.402;2024-01-10T13:14:01;23.20;;;13.10;;
65853;SDS011;52627;48.838;2.402;2024-01-10T13:16:28;22.20;;;12.50;;
65853;SDS011;52627;48.838;2.402;2024-01-10T13:18:55;24.10;;;13.30;;
65853;SDS011;52627;48.838;2.402;2024-01-10T13:21:24;21.80;;;12.60;;
65853;SDS011;52627;48.838;2.402;2024-01-10T13:23:51;20.50;;;13.30;;
65853;SDS011;52627;48.838;2.402;2024-01-10T13:26:18;21.90;;;12.80;;
65853;SDS011;52627;48.838;2.402;2024-01-10T13:28:45;23.00;;;12.60;;
65853;SDS011;52627;48.838;2.402;2024-01-10T13:31:12;25.20;;;13.10;;
65853;SDS011;52627;48.838;2.402;2024-01-10T13:33:39;23.80;;;13.00;;
65853;SDS011;52627;48.838;2.402;2024-01-10T13:36:13;22.70;;;13.20;;
65853;SDS011;52627;48.838;2.402;2024-01-10T13:38:40;24.10;;;13.30;;
65853;SDS011;52627;48.838;2.402;2024-01-10T13:41:07;22.60;;;11.70;;
65853;SDS011;52627;48.838;2.402;2024-01-10T13:43:34;29.60;;;13.30;;
65853;SDS011;52627;48.838;2.402;2024-01-10T13:46:01;23.20;;;13.10;;
65853;SDS011;52627;48.838;2.402;2024-01-10T13:48:30;22.10;;;13.10;;
65853;SDS011;52627;48.838;2.402;2024-01-10T13:50:57;23.50;;;12.90;;
65853;SDS011;52627;48.838;2.402;2024-01-10T13:53:24;23.00;;;13.40;;
65853;SDS011;52627;48.838;2.402;2024-01-10T13:55:51;21.10;;;12.30;;
65853;SDS011;52627;48.838;2.402;2024-01-10T13:58:18;24.90;;;13.60;;
65853;SDS011;52627;48.838;2.402;2024-01-10T14:00:45;21.50;;;13.20;;
65853;SDS011;52627;48.838;2.402;2024-01-10T14:03:13;23.30;;;13.70;;
65853;SDS011;52627;48.838;2.402;2024-01-10T14:05:40;23.70;;;13.60;;
65853;SDS011;52627;48.838;2.402;2024-01-10T14:08:07;25.40;;;13.50;;
65853;SDS011;52627;48.838;2.402;2024-01-10T14:10:35;21.20;;;12.70;;
65853;SDS011;52627;48.838;2.402;2024-01-10T14:13:02;21.70;;;12.20;;
65853;SDS011;52627;48.838;2.402;2024-01-10T14:15:30;22.00;;;12.20;;
65853;SDS011;52627;48.838;2.402;2024-01-10T14:17:56;25.40;;;13.40;;
65853;SDS011;52627;48.838;2.402;2024-01-10T14:20:24;21.80;;;12.60;;
65853;SDS011;52627;48.838;2.402;2024-01-10T14:22:51;23.60;;;13.80;;
65853;SDS011;52627;48.838;2.402;2024-01-10T14:25:19;26.10;;;13.70;;
65853;SDS011;52627;48.838;2.402;2024-01-10T14:27:47;24.20;;;13.50;;
65853;SDS011;52627;48.838;2.402;2024-01-10T14:30:13;23.20;;;13.80;;
65853;SDS011;52627;48.838;2.402;2024-01-10T14:32:42;23.80;;;13.60;;
65853;SDS011;52627;48.838;2.402;2024-01-10T14:35:09;23.50;;;13.80;;
65853;SDS011;52627;48.838;2.402;2024-01-10T14:37:36;24.70;;;14.90;;
65853;SDS011;52627;48.838;2.402;2024-01-10T14:40:03;23.80;;;13.60;;